Pagrindinis puslapis
METAR-TAF:

METAR-TAF

Oro uostai :

Dakaras, Senegalas

platuma: 14-44N, ilguma: 017-30W, Aukštis: 27 m

Dabartinis oras

Ataskaita buvo paskelbta 46 minutes, ne 22:00 UTC
Vėjas 12 kt iš Šiaurės/Šiaurės Vakarų
Temperatūra 22°C
Drėgmė 94%
Slėgis 1011 hPa
Matomumas: 8000 m
Išsisklaidę debesys ne aukštis 1000 ft

METAR: GOOY 212200Z 34012KT 8000 SCT010 22/21 Q1011

Laikas: 22:46 (22:46 UTC)

Prognozė

Ataskaita buvo paskelbta 5 valandos ir 16 minutes, ne 17:30 UTC
Prognozė galioja nuo 21 metu 18 UTC su 22 metu 24 UTC
Vėjas 14 kt iš Šiaurės
Matomumas 10 km arba daugiau
nėra debesų žemiau 1500 m ir nėra kamuolinių lietaus debesų

TAF: GOOY 211730Z 2118/2224 35014KT CAVOK

Orai ataskaitas ir orų prognozės (METAR, TAF).

turimą stotys yra geltonos ir raudonos taškus žemėlapyje.

Perkelti pele per norėdami pamatyti stoties vardą.

Tada spustelėkite, norėdami matyti oro stebėjimo ir prognozės.

Norėdami pakeisti žemėlapį: spustelėkite ant žalios mygtukų su juodo kryžiaus žemyn,; žalią mygtuką su brūkšneliu, jei norite nutolinti; arba žalių rodyklių gretimoms žemėlapius.


METAR-TAF: